sensor_id;sensor_type;location;lat;lon;timestamp;P1;durP1;ratioP1;P2;durP2;ratioP2
38683;SDS011;24910;53.248;-6.134;2022-08-19T00:01:44;18.57;;;3.00;;
38683;SDS011;24910;53.248;-6.134;2022-08-19T00:04:20;14.80;;;2.78;;
38683;SDS011;24910;53.248;-6.134;2022-08-19T00:06:51;28.23;;;3.58;;
38683;SDS011;24910;53.248;-6.134;2022-08-19T00:09:21;18.60;;;3.20;;
38683;SDS011;24910;53.248;-6.134;2022-08-19T00:11:51;21.92;;;3.10;;
38683;SDS011;24910;53.248;-6.134;2022-08-19T00:14:22;19.80;;;3.28;;
38683;SDS011;24910;53.248;-6.134;2022-08-19T00:16:53;18.30;;;2.70;;
38683;SDS011;24910;53.248;-6.134;2022-08-19T00:19:22;22.80;;;3.28;;
38683;SDS011;24910;53.248;-6.134;2022-08-19T00:21:53;20.50;;;3.35;;
38683;SDS011;24910;53.248;-6.134;2022-08-19T00:24:23;20.27;;;3.47;;
38683;SDS011;24910;53.248;-6.134;2022-08-19T00:26:53;18.00;;;3.70;;
38683;SDS011;24910;53.248;-6.134;2022-08-19T00:29:22;18.30;;;3.13;;
38683;SDS011;24910;53.248;-6.134;2022-08-19T00:31:52;25.20;;;4.30;;
38683;SDS011;24910;53.248;-6.134;2022-08-19T00:34:25;17.65;;;3.22;;
38683;SDS011;24910;53.248;-6.134;2022-08-19T00:36:57;18.40;;;3.40;;
38683;SDS011;24910;53.248;-6.134;2022-08-19T00:39:27;20.15;;;2.95;;
38683;SDS011;24910;53.248;-6.134;2022-08-19T00:41:56;25.38;;;4.03;;
38683;SDS011;24910;53.248;-6.134;2022-08-19T00:44:26;23.95;;;3.05;;
38683;SDS011;24910;53.248;-6.134;2022-08-19T00:46:57;17.13;;;3.72;;
38683;SDS011;24910;53.248;-6.134;2022-08-19T00:49:28;22.95;;;3.95;;
38683;SDS011;24910;53.248;-6.134;2022-08-19T00:52:02;24.90;;;3.47;;
38683;SDS011;24910;53.248;-6.134;2022-08-19T00:54:33;25.52;;;3.63;;
38683;SDS011;24910;53.248;-6.134;2022-08-19T00:57:04;22.48;;;3.80;;
38683;SDS011;24910;53.248;-6.134;2022-08-19T00:59:36;22.75;;;3.80;;
38683;SDS011;24910;53.248;-6.134;2022-08-19T01:02:28;22.33;;;3.63;;
38683;SDS011;24910;53.248;-6.134;2022-08-19T01:04:59;22.80;;;3.97;;
38683;SDS011;24910;53.248;-6.134;2022-08-19T01:07:31;27.60;;;3.65;;
38683;SDS011;24910;53.248;-6.134;2022-08-19T01:10:05;32.80;;;3.55;;
38683;SDS011;24910;53.248;-6.134;2022-08-19T01:15:05;27.23;;;4.10;;
38683;SDS011;24910;53.248;-6.134;2022-08-19T01:17:38;27.20;;;4.00;;
38683;SDS011;24910;53.248;-6.134;2022-08-19T01:22:40;23.23;;;4.22;;
38683;SDS011;24910;53.248;-6.134;2022-08-19T01:25:12;25.67;;;3.90;;
38683;SDS011;24910;53.248;-6.134;2022-08-19T01:27:44;24.53;;;3.43;;
38683;SDS011;24910;53.248;-6.134;2022-08-19T01:30:20;24.13;;;3.63;;
38683;SDS011;24910;53.248;-6.134;2022-08-19T01:32:51;25.42;;;3.85;;
38683;SDS011;24910;53.248;-6.134;2022-08-19T01:35:23;23.73;;;4.03;;
38683;SDS011;24910;53.248;-6.134;2022-08-19T01:37:55;25.10;;;3.42;;
38683;SDS011;24910;53.248;-6.134;2022-08-19T01:40:27;25.83;;;4.07;;
38683;SDS011;24910;53.248;-6.134;2022-08-19T01:42:58;29.02;;;3.95;;
38683;SDS011;24910;53.248;-6.134;2022-08-19T01:45:29;29.23;;;4.30;;
38683;SDS011;24910;53.248;-6.134;2022-08-19T01:48:00;24.67;;;3.15;;
38683;SDS011;24910;53.248;-6.134;2022-08-19T01:50:29;24.92;;;3.60;;
38683;SDS011;24910;53.248;-6.134;2022-08-19T01:53:00;27.60;;;3.65;;
38683;SDS011;24910;53.248;-6.134;2022-08-19T01:55:34;21.15;;;3.45;;
38683;SDS011;24910;53.248;-6.134;2022-08-19T01:58:08;20.23;;;3.88;;
38683;SDS011;24910;53.248;-6.134;2022-08-19T02:00:42;26.15;;;3.88;;
38683;SDS011;24910;53.248;-6.134;2022-08-19T02:03:12;25.08;;;3.47;;
38683;SDS011;24910;53.248;-6.134;2022-08-19T02:05:42;26.30;;;3.63;;
38683;SDS011;24910;53.248;-6.134;2022-08-19T02:08:14;17.65;;;3.40;;
38683;SDS011;24910;53.248;-6.134;2022-08-19T02:10:43;26.05;;;4.07;;
38683;SDS011;24910;53.248;-6.134;2022-08-19T02:13:12;22.65;;;3.63;;
38683;SDS011;24910;53.248;-6.134;2022-08-19T02:15:48;21.85;;;3.15;;
38683;SDS011;24910;53.248;-6.134;2022-08-19T02:18:17;18.77;;;3.33;;
38683;SDS011;24910;53.248;-6.134;2022-08-19T02:20:46;25.02;;;3.50;;
38683;SDS011;24910;53.248;-6.134;2022-08-19T02:23:16;23.15;;;3.20;;
38683;SDS011;24910;53.248;-6.134;2022-08-19T02:25:46;21.93;;;3.93;;
38683;SDS011;24910;53.248;-6.134;2022-08-19T02:28:16;23.80;;;3.55;;
38683;SDS011;24910;53.248;-6.134;2022-08-19T02:30:46;24.20;;;3.58;;
38683;SDS011;24910;53.248;-6.134;2022-08-19T02:33:16;25.17;;;3.85;;
38683;SDS011;24910;53.248;-6.134;2022-08-19T02:35:45;21.02;;;3.40;;
38683;SDS011;24910;53.248;-6.134;2022-08-19T02:38:16;16.83;;;3.25;;
38683;SDS011;24910;53.248;-6.134;2022-08-19T02:40:55;25.02;;;2.88;;
38683;SDS011;24910;53.248;-6.134;2022-08-19T02:43:26;13.23;;;2.97;;
38683;SDS011;24910;53.248;-6.134;2022-08-19T02:46:00;20.65;;;3.55;;
38683;SDS011;24910;53.248;-6.134;2022-08-19T02:48:30;18.33;;;3.10;;
38683;SDS011;24910;53.248;-6.134;2022-08-19T02:51:00;18.52;;;3.45;;
38683;SDS011;24910;53.248;-6.134;2022-08-19T02:53:30;19.75;;;3.03;;
38683;SDS011;24910;53.248;-6.134;2022-08-19T02:55:59;15.53;;;3.00;;
38683;SDS011;24910;53.248;-6.134;2022-08-19T02:58:28;21.42;;;3.05;;
38683;SDS011;24910;53.248;-6.134;2022-08-19T03:00:57;22.20;;;3.33;;
38683;SDS011;24910;53.248;-6.134;2022-08-19T03:03:27;17.20;;;2.78;;
38683;SDS011;24910;53.248;-6.134;2022-08-19T03:06:07;15.00;;;3.03;;
38683;SDS011;24910;53.248;-6.134;2022-08-19T03:08:41;19.15;;;3.25;;
38683;SDS011;24910;53.248;-6.134;2022-08-19T03:11:12;15.07;;;2.72;;
38683;SDS011;24910;53.248;-6.134;2022-08-19T03:13:42;14.13;;;2.70;;
38683;SDS011;24910;53.248;-6.134;2022-08-19T03:16:12;17.35;;;3.40;;
38683;SDS011;24910;53.248;-6.134;2022-08-19T03:18:41;15.43;;;2.67;;
38683;SDS011;24910;53.248;-6.134;2022-08-19T03:21:14;17.58;;;2.50;;
38683;SDS011;24910;53.248;-6.134;2022-08-19T03:23:45;17.52;;;2.90;;
38683;SDS011;24910;53.248;-6.134;2022-08-19T03:26:15;15.47;;;2.97;;
38683;SDS011;24910;53.248;-6.134;2022-08-19T03:28:44;14.70;;;2.53;;
38683;SDS011;24910;53.248;-6.134;2022-08-19T03:31:25;11.18;;;2.28;;
38683;SDS011;24910;53.248;-6.134;2022-08-19T03:34:11;9.98;;;2.15;;
38683;SDS011;24910;53.248;-6.134;2022-08-19T03:36:41;15.55;;;2.65;;
38683;SDS011;24910;53.248;-6.134;2022-08-19T03:39:13;12.75;;;2.15;;
38683;SDS011;24910;53.248;-6.134;2022-08-19T03:41:43;14.18;;;2.08;;
38683;SDS011;24910;53.248;-6.134;2022-08-19T03:44:15;11.98;;;1.90;;
38683;SDS011;24910;53.248;-6.134;2022-08-19T03:46:49;13.57;;;2.50;;
38683;SDS011;24910;53.248;-6.134;2022-08-19T03:49:20;11.00;;;1.90;;
38683;SDS011;24910;53.248;-6.134;2022-08-19T03:51:55;10.00;;;2.08;;
38683;SDS011;24910;53.248;-6.134;2022-08-19T03:54:28;16.33;;;2.33;;
38683;SDS011;24910;53.248;-6.134;2022-08-19T03:56:58;10.45;;;2.38;;
38683;SDS011;24910;53.248;-6.134;2022-08-19T03:59:29;13.32;;;2.13;;
38683;SDS011;24910;53.248;-6.134;2022-08-19T04:02:03;11.05;;;2.17;;
38683;SDS011;24910;53.248;-6.134;2022-08-19T04:04:36;11.85;;;2.08;;
38683;SDS011;24910;53.248;-6.134;2022-08-19T04:07:06;9.45;;;1.60;;
38683;SDS011;24910;53.248;-6.134;2022-08-19T04:09:38;14.10;;;1.88;;
38683;SDS011;24910;53.248;-6.134;2022-08-19T04:12:07;13.37;;;1.97;;
38683;SDS011;24910;53.248;-6.134;2022-08-19T04:14:36;18.95;;;2.60;;
38683;SDS011;24910;53.248;-6.134;2022-08-19T04:17:06;11.40;;;1.90;;
38683;SDS011;24910;53.248;-6.134;2022-08-19T04:19:36;10.07;;;1.65;;
38683;SDS011;24910;53.248;-6.134;2022-08-19T04:22:05;11.13;;;2.03;;
38683;SDS011;24910;53.248;-6.134;2022-08-19T04:24:35;15.38;;;2.00;;
38683;SDS011;24910;53.248;-6.134;2022-08-19T04:27:05;8.70;;;1.90;;
38683;SDS011;24910;53.248;-6.134;2022-08-19T04:29:35;12.83;;;2.00;;
38683;SDS011;24910;53.248;-6.134;2022-08-19T04:32:06;13.07;;;1.90;;
38683;SDS011;24910;53.248;-6.134;2022-08-19T04:34:36;14.13;;;2.47;;
38683;SDS011;24910;53.248;-6.134;2022-08-19T04:37:26;11.48;;;1.98;;
38683;SDS011;24910;53.248;-6.134;2022-08-19T04:40:03;15.45;;;1.67;;
38683;SDS011;24910;53.248;-6.134;2022-08-19T04:42:53;11.80;;;2.10;;
38683;SDS011;24910;53.248;-6.134;2022-08-19T04:45:22;9.93;;;2.03;;
38683;SDS011;24910;53.248;-6.134;2022-08-19T04:47:54;11.45;;;1.90;;
38683;SDS011;24910;53.248;-6.134;2022-08-19T04:50:44;13.38;;;2.22;;
38683;SDS011;24910;53.248;-6.134;2022-08-19T04:53:13;10.57;;;2.05;;
38683;SDS011;24910;53.248;-6.134;2022-08-19T04:55:42;11.38;;;2.05;;
38683;SDS011;24910;53.248;-6.134;2022-08-19T04:58:13;9.90;;;1.90;;
38683;SDS011;24910;53.248;-6.134;2022-08-19T05:00:43;8.77;;;1.90;;
38683;SDS011;24910;53.248;-6.134;2022-08-19T05:03:12;13.25;;;1.83;;
38683;SDS011;24910;53.248;-6.134;2022-08-19T05:05:44;10.68;;;2.42;;
38683;SDS011;24910;53.248;-6.134;2022-08-19T05:10:57;9.77;;;1.95;;
38683;SDS011;24910;53.248;-6.134;2022-08-19T05:13:27;11.52;;;2.17;;
38683;SDS011;24910;53.248;-6.134;2022-08-19T05:15:57;11.07;;;1.83;;
38683;SDS011;24910;53.248;-6.134;2022-08-19T05:18:27;10.67;;;1.77;;
38683;SDS011;24910;53.248;-6.134;2022-08-19T05:21:14;8.43;;;1.50;;
38683;SDS011;24910;53.248;-6.134;2022-08-19T05:24:03;12.20;;;1.60;;
38683;SDS011;24910;53.248;-6.134;2022-08-19T05:26:34;13.90;;;2.00;;
38683;SDS011;24910;53.248;-6.134;2022-08-19T05:29:05;7.32;;;1.45;;
38683;SDS011;24910;53.248;-6.134;2022-08-19T05:31:36;10.43;;;2.28;;
38683;SDS011;24910;53.248;-6.134;2022-08-19T05:34:08;11.57;;;1.73;;
38683;SDS011;24910;53.248;-6.134;2022-08-19T05:36:46;6.18;;;1.50;;
38683;SDS011;24910;53.248;-6.134;2022-08-19T05:39:17;10.95;;;1.63;;
38683;SDS011;24910;53.248;-6.134;2022-08-19T05:41:49;10.27;;;2.10;;
38683;SDS011;24910;53.248;-6.134;2022-08-19T05:44:22;8.10;;;1.75;;
38683;SDS011;24910;53.248;-6.134;2022-08-19T05:46:52;14.70;;;2.33;;
38683;SDS011;24910;53.248;-6.134;2022-08-19T05:49:22;13.52;;;1.40;;
38683;SDS011;24910;53.248;-6.134;2022-08-19T05:51:52;8.23;;;1.67;;
38683;SDS011;24910;53.248;-6.134;2022-08-19T05:54:22;6.25;;;1.63;;
38683;SDS011;24910;53.248;-6.134;2022-08-19T05:56:52;9.25;;;1.90;;
38683;SDS011;24910;53.248;-6.134;2022-08-19T05:59:23;6.43;;;1.70;;
38683;SDS011;24910;53.248;-6.134;2022-08-19T06:01:52;6.40;;;1.40;;
38683;SDS011;24910;53.248;-6.134;2022-08-19T06:04:23;11.05;;;1.60;;
38683;SDS011;24910;53.248;-6.134;2022-08-19T06:06:52;6.35;;;1.33;;
38683;SDS011;24910;53.248;-6.134;2022-08-19T06:09:23;6.47;;;1.10;;
38683;SDS011;24910;53.248;-6.134;2022-08-19T06:11:53;8.27;;;1.17;;
38683;SDS011;24910;53.248;-6.134;2022-08-19T06:14:28;10.05;;;1.40;;
38683;SDS011;24910;53.248;-6.134;2022-08-19T06:17:00;6.95;;;1.60;;
38683;SDS011;24910;53.248;-6.134;2022-08-19T06:19:33;8.13;;;2.40;;
38683;SDS011;24910;53.248;-6.134;2022-08-19T06:22:07;8.73;;;1.52;;
38683;SDS011;24910;53.248;-6.134;2022-08-19T06:24:38;7.97;;;1.38;;
38683;SDS011;24910;53.248;-6.134;2022-08-19T06:27:08;5.68;;;1.40;;
38683;SDS011;24910;53.248;-6.134;2022-08-19T06:29:39;10.45;;;1.42;;
38683;SDS011;24910;53.248;-6.134;2022-08-19T06:32:09;8.82;;;1.55;;
38683;SDS011;24910;53.248;-6.134;2022-08-19T06:34:38;10.55;;;1.65;;
38683;SDS011;24910;53.248;-6.134;2022-08-19T06:37:08;7.70;;;1.45;;
38683;SDS011;24910;53.248;-6.134;2022-08-19T06:39:38;9.05;;;1.20;;
38683;SDS011;24910;53.248;-6.134;2022-08-19T06:42:08;5.82;;;1.40;;
38683;SDS011;24910;53.248;-6.134;2022-08-19T06:44:46;10.10;;;1.50;;
38683;SDS011;24910;53.248;-6.134;2022-08-19T06:47:20;6.53;;;1.40;;
38683;SDS011;24910;53.248;-6.134;2022-08-19T06:49:55;5.00;;;1.00;;
38683;SDS011;24910;53.248;-6.134;2022-08-19T06:52:30;8.50;;;1.30;;
38683;SDS011;24910;53.248;-6.134;2022-08-19T06:55:03;10.88;;;1.40;;
38683;SDS011;24910;53.248;-6.134;2022-08-19T06:57:33;9.23;;;1.60;;
38683;SDS011;24910;53.248;-6.134;2022-08-19T07:00:04;9.65;;;1.42;;
38683;SDS011;24910;53.248;-6.134;2022-08-19T07:02:39;8.52;;;1.35;;
38683;SDS011;24910;53.248;-6.134;2022-08-19T07:05:21;6.88;;;1.80;;
38683;SDS011;24910;53.248;-6.134;2022-08-19T07:07:50;4.55;;;1.00;;
38683;SDS011;24910;53.248;-6.134;2022-08-19T07:10:23;8.48;;;1.52;;
38683;SDS011;24910;53.248;-6.134;2022-08-19T07:12:52;6.53;;;1.25;;
38683;SDS011;24910;53.248;-6.134;2022-08-19T07:15:23;8.25;;;1.23;;
38683;SDS011;24910;53.248;-6.134;2022-08-19T07:17:52;10.30;;;1.40;;
38683;SDS011;24910;53.248;-6.134;2022-08-19T07:20:21;10.38;;;1.30;;
38683;SDS011;24910;53.248;-6.134;2022-08-19T07:22:54;6.32;;;1.30;;
38683;SDS011;24910;53.248;-6.134;2022-08-19T07:25:23;7.78;;;1.48;;
38683;SDS011;24910;53.248;-6.134;2022-08-19T07:27:59;8.05;;;1.58;;
38683;SDS011;24910;53.248;-6.134;2022-08-19T07:30:30;6.90;;;1.30;;
38683;SDS011;24910;53.248;-6.134;2022-08-19T07:33:00;10.43;;;1.40;;
38683;SDS011;24910;53.248;-6.134;2022-08-19T07:35:31;8.13;;;1.80;;
38683;SDS011;24910;53.248;-6.134;2022-08-19T07:38:00;6.35;;;1.30;;
38683;SDS011;24910;53.248;-6.134;2022-08-19T07:40:30;7.55;;;1.33;;
38683;SDS011;24910;53.248;-6.134;2022-08-19T07:43:00;9.00;;;1.40;;
38683;SDS011;24910;53.248;-6.134;2022-08-19T07:45:30;7.15;;;1.25;;
38683;SDS011;24910;53.248;-6.134;2022-08-19T07:47:59;5.95;;;1.42;;
38683;SDS011;24910;53.248;-6.134;2022-08-19T07:50:29;5.40;;;1.25;;
38683;SDS011;24910;53.248;-6.134;2022-08-19T07:52:58;7.95;;;1.40;;
38683;SDS011;24910;53.248;-6.134;2022-08-19T07:55:27;4.50;;;1.17;;
38683;SDS011;24910;53.248;-6.134;2022-08-19T08:00:40;8.57;;;1.35;;
38683;SDS011;24910;53.248;-6.134;2022-08-19T08:03:10;8.27;;;1.27;;
38683;SDS011;24910;53.248;-6.134;2022-08-19T08:05:39;6.70;;;1.45;;
38683;SDS011;24910;53.248;-6.134;2022-08-19T08:08:26;9.55;;;1.27;;
38683;SDS011;24910;53.248;-6.134;2022-08-19T08:11:15;4.55;;;0.90;;
38683;SDS011;24910;53.248;-6.134;2022-08-19T08:13:46;5.43;;;1.30;;
38683;SDS011;24910;53.248;-6.134;2022-08-19T08:16:33;7.57;;;1.33;;
38683;SDS011;24910;53.248;-6.134;2022-08-19T08:19:06;8.63;;;1.27;;
38683;SDS011;24910;53.248;-6.134;2022-08-19T08:21:49;7.10;;;1.25;;
38683;SDS011;24910;53.248;-6.134;2022-08-19T08:24:18;6.00;;;1.40;;
38683;SDS011;24910;53.248;-6.134;2022-08-19T08:26:54;7.85;;;1.38;;
38683;SDS011;24910;53.248;-6.134;2022-08-19T08:29:24;5.30;;;1.17;;
38683;SDS011;24910;53.248;-6.134;2022-08-19T08:32:02;10.45;;;1.17;;
38683;SDS011;24910;53.248;-6.134;2022-08-19T08:34:41;6.97;;;1.40;;
38683;SDS011;24910;53.248;-6.134;2022-08-19T08:37:13;5.35;;;0.93;;
38683;SDS011;24910;53.248;-6.134;2022-08-19T08:39:42;4.68;;;1.27;;
38683;SDS011;24910;53.248;-6.134;2022-08-19T08:42:15;8.02;;;1.85;;
38683;SDS011;24910;53.248;-6.134;2022-08-19T08:44:49;9.35;;;1.38;;
38683;SDS011;24910;53.248;-6.134;2022-08-19T08:47:31;8.73;;;1.93;;
38683;SDS011;24910;53.248;-6.134;2022-08-19T08:50:09;9.88;;;1.30;;
38683;SDS011;24910;53.248;-6.134;2022-08-19T08:52:43;7.07;;;1.40;;
38683;SDS011;24910;53.248;-6.134;2022-08-19T08:55:15;6.20;;;1.63;;
38683;SDS011;24910;53.248;-6.134;2022-08-19T08:57:51;10.13;;;1.23;;
38683;SDS011;24910;53.248;-6.134;2022-08-19T09:00:25;7.05;;;1.27;;
38683;SDS011;24910;53.248;-6.134;2022-08-19T09:02:58;10.05;;;1.42;;
38683;SDS011;24910;53.248;-6.134;2022-08-19T09:05:32;9.73;;;1.45;;
38683;SDS011;24910;53.248;-6.134;2022-08-19T09:08:16;6.18;;;1.20;;
38683;SDS011;24910;53.248;-6.134;2022-08-19T09:10:55;8.48;;;1.08;;
38683;SDS011;24910;53.248;-6.134;2022-08-19T09:13:27;5.50;;;1.10;;
38683;SDS011;24910;53.248;-6.134;2022-08-19T09:16:05;4.35;;;0.93;;
38683;SDS011;24910;53.248;-6.134;2022-08-19T09:18:40;5.60;;;1.10;;
38683;SDS011;24910;53.248;-6.134;2022-08-19T09:21:10;4.88;;;1.02;;
38683;SDS011;24910;53.248;-6.134;2022-08-19T09:23:40;5.95;;;0.90;;
38683;SDS011;24910;53.248;-6.134;2022-08-19T09:26:10;6.40;;;1.30;;
38683;SDS011;24910;53.248;-6.134;2022-08-19T09:28:43;5.10;;;0.95;;
38683;SDS011;24910;53.248;-6.134;2022-08-19T09:31:16;4.97;;;1.08;;
38683;SDS011;24910;53.248;-6.134;2022-08-19T09:33:48;3.67;;;0.90;;
38683;SDS011;24910;53.248;-6.134;2022-08-19T09:39:00;2.40;;;0.65;;
38683;SDS011;24910;53.248;-6.134;2022-08-19T09:41:42;5.40;;;1.02;;
38683;SDS011;24910;53.248;-6.134;2022-08-19T09:44:15;8.23;;;1.33;;
38683;SDS011;24910;53.248;-6.134;2022-08-19T09:46:45;6.38;;;1.20;;
38683;SDS011;24910;53.248;-6.134;2022-08-19T09:49:17;6.25;;;1.20;;
38683;SDS011;24910;53.248;-6.134;2022-08-19T09:51:49;5.13;;;1.08;;
38683;SDS011;24910;53.248;-6.134;2022-08-19T09:54:19;4.53;;;1.20;;
38683;SDS011;24910;53.248;-6.134;2022-08-19T09:56:51;6.00;;;1.35;;
38683;SDS011;24910;53.248;-6.134;2022-08-19T09:59:21;3.90;;;0.90;;
38683;SDS011;24910;53.248;-6.134;2022-08-19T10:01:50;7.03;;;1.40;;
38683;SDS011;24910;53.248;-6.134;2022-08-19T10:04:21;6.53;;;1.20;;
38683;SDS011;24910;53.248;-6.134;2022-08-19T10:06:51;5.38;;;1.13;;
38683;SDS011;24910;53.248;-6.134;2022-08-19T10:09:24;6.68;;;1.20;;
38683;SDS011;24910;53.248;-6.134;2022-08-19T10:12:01;7.65;;;1.30;;
38683;SDS011;24910;53.248;-6.134;2022-08-19T10:17:01;5.25;;;1.13;;
38683;SDS011;24910;53.248;-6.134;2022-08-19T10:19:48;6.05;;;1.30;;
38683;SDS011;24910;53.248;-6.134;2022-08-19T10:22:22;6.88;;;1.25;;
38683;SDS011;24910;53.248;-6.134;2022-08-19T10:24:52;8.73;;;1.25;;
38683;SDS011;24910;53.248;-6.134;2022-08-19T10:27:22;6.40;;;1.30;;
38683;SDS011;24910;53.248;-6.134;2022-08-19T10:29:52;4.05;;;1.10;;
38683;SDS011;24910;53.248;-6.134;2022-08-19T10:32:24;6.28;;;1.20;;
38683;SDS011;24910;53.248;-6.134;2022-08-19T10:35:04;4.57;;;1.20;;
38683;SDS011;24910;53.248;-6.134;2022-08-19T10:37:36;4.35;;;1.02;;
38683;SDS011;24910;53.248;-6.134;2022-08-19T10:40:24;5.15;;;1.00;;
38683;SDS011;24910;53.248;-6.134;2022-08-19T10:42:54;5.35;;;1.30;;
38683;SDS011;24910;53.248;-6.134;2022-08-19T10:45:24;8.23;;;1.45;;
38683;SDS011;24910;53.248;-6.134;2022-08-19T10:47:54;10.52;;;1.52;;
38683;SDS011;24910;53.248;-6.134;2022-08-19T10:50:26;6.22;;;1.35;;
38683;SDS011;24910;53.248;-6.134;2022-08-19T10:53:13;4.43;;;1.38;;
38683;SDS011;24910;53.248;-6.134;2022-08-19T10:55:44;5.18;;;1.40;;
38683;SDS011;24910;53.248;-6.134;2022-08-19T10:58:30;5.25;;;1.65;;
38683;SDS011;24910;53.248;-6.134;2022-08-19T11:00:59;9.40;;;1.23;;
38683;SDS011;24910;53.248;-6.134;2022-08-19T11:03:28;6.43;;;1.50;;
38683;SDS011;24910;53.248;-6.134;2022-08-19T11:06:20;6.63;;;1.27;;
38683;SDS011;24910;53.248;-6.134;2022-08-19T11:08:49;7.60;;;1.30;;
38683;SDS011;24910;53.248;-6.134;2022-08-19T11:11:19;4.30;;;1.10;;
38683;SDS011;24910;53.248;-6.134;2022-08-19T11:13:48;8.63;;;1.65;;
38683;SDS011;24910;53.248;-6.134;2022-08-19T11:16:19;5.22;;;0.90;;
38683;SDS011;24910;53.248;-6.134;2022-08-19T11:18:50;7.63;;;1.27;;
38683;SDS011;24910;53.248;-6.134;2022-08-19T11:23:53;7.72;;;1.52;;
38683;SDS011;24910;53.248;-6.134;2022-08-19T11:26:24;7.47;;;2.58;;
38683;SDS011;24910;53.248;-6.134;2022-08-19T11:28:53;8.85;;;1.40;;
38683;SDS011;24910;53.248;-6.134;2022-08-19T11:31:23;5.03;;;1.25;;
38683;SDS011;24910;53.248;-6.134;2022-08-19T11:33:55;6.00;;;1.58;;
38683;SDS011;24910;53.248;-6.134;2022-08-19T11:36:28;7.40;;;1.95;;
38683;SDS011;24910;53.248;-6.134;2022-08-19T11:38:58;6.50;;;1.90;;
38683;SDS011;24910;53.248;-6.134;2022-08-19T11:41:28;10.98;;;2.00;;
38683;SDS011;24910;53.248;-6.134;2022-08-19T11:43:57;12.75;;;2.55;;
38683;SDS011;24910;53.248;-6.134;2022-08-19T11:46:26;7.88;;;1.80;;
38683;SDS011;24910;53.248;-6.134;2022-08-19T11:48:56;7.18;;;1.10;;
38683;SDS011;24910;53.248;-6.134;2022-08-19T11:51:28;8.23;;;1.50;;
38683;SDS011;24910;53.248;-6.134;2022-08-19T11:53:58;13.20;;;2.95;;
38683;SDS011;24910;53.248;-6.134;2022-08-19T11:56:28;9.25;;;1.77;;
38683;SDS011;24910;53.248;-6.134;2022-08-19T11:58:57;7.78;;;1.50;;
38683;SDS011;24910;53.248;-6.134;2022-08-19T12:01:30;7.07;;;1.90;;
38683;SDS011;24910;53.248;-6.134;2022-08-19T12:03:59;8.38;;;1.88;;
38683;SDS011;24910;53.248;-6.134;2022-08-19T12:06:31;10.27;;;2.55;;
38683;SDS011;24910;53.248;-6.134;2022-08-19T12:09:02;7.32;;;1.95;;
38683;SDS011;24910;53.248;-6.134;2022-08-19T12:11:33;8.68;;;2.40;;
38683;SDS011;24910;53.248;-6.134;2022-08-19T12:14:02;11.55;;;2.72;;
38683;SDS011;24910;53.248;-6.134;2022-08-19T12:16:31;7.97;;;2.10;;
38683;SDS011;24910;53.248;-6.134;2022-08-19T12:21:34;12.65;;;2.30;;
38683;SDS011;24910;53.248;-6.134;2022-08-19T12:24:04;7.07;;;2.45;;
38683;SDS011;24910;53.248;-6.134;2022-08-19T12:26:34;9.63;;;1.52;;
38683;SDS011;24910;53.248;-6.134;2022-08-19T12:29:20;10.18;;;2.22;;
38683;SDS011;24910;53.248;-6.134;2022-08-19T12:31:55;9.80;;;3.08;;
38683;SDS011;24910;53.248;-6.134;2022-08-19T12:34:30;11.00;;;2.80;;
38683;SDS011;24910;53.248;-6.134;2022-08-19T12:37:02;12.40;;;2.10;;
38683;SDS011;24910;53.248;-6.134;2022-08-19T12:39:36;9.85;;;2.20;;
38683;SDS011;24910;53.248;-6.134;2022-08-19T12:42:07;7.20;;;2.70;;
38683;SDS011;24910;53.248;-6.134;2022-08-19T12:44:38;12.32;;;2.42;;
38683;SDS011;24910;53.248;-6.134;2022-08-19T12:47:09;5.25;;;1.85;;
38683;SDS011;24910;53.248;-6.134;2022-08-19T12:49:41;10.13;;;2.20;;
38683;SDS011;24910;53.248;-6.134;2022-08-19T12:52:24;10.35;;;2.80;;
38683;SDS011;24910;53.248;-6.134;2022-08-19T12:54:55;10.35;;;2.33;;
38683;SDS011;24910;53.248;-6.134;2022-08-19T12:57:26;8.63;;;2.23;;
38683;SDS011;24910;53.248;-6.134;2022-08-19T13:00:00;9.50;;;1.70;;
38683;SDS011;24910;53.248;-6.134;2022-08-19T13:02:33;6.00;;;2.00;;
38683;SDS011;24910;53.248;-6.134;2022-08-19T13:05:06;5.88;;;2.03;;
38683;SDS011;24910;53.248;-6.134;2022-08-19T13:07:38;7.93;;;2.33;;
38683;SDS011;24910;53.248;-6.134;2022-08-19T13:10:09;7.40;;;2.35;;
38683;SDS011;24910;53.248;-6.134;2022-08-19T13:15:09;7.80;;;2.05;;
38683;SDS011;24910;53.248;-6.134;2022-08-19T13:17:41;9.40;;;2.35;;
38683;SDS011;24910;53.248;-6.134;2022-08-19T13:20:10;11.52;;;2.78;;
38683;SDS011;24910;53.248;-6.134;2022-08-19T13:22:41;8.13;;;2.90;;
38683;SDS011;24910;53.248;-6.134;2022-08-19T13:25:12;8.18;;;2.45;;
38683;SDS011;24910;53.248;-6.134;2022-08-19T13:27:43;7.93;;;2.50;;
38683;SDS011;24910;53.248;-6.134;2022-08-19T13:30:14;5.85;;;2.20;;
38683;SDS011;24910;53.248;-6.134;2022-08-19T13:33:01;6.85;;;2.15;;
38683;SDS011;24910;53.248;-6.134;2022-08-19T13:35:44;7.90;;;2.45;;
38683;SDS011;24910;53.248;-6.134;2022-08-19T13:38:17;10.52;;;2.85;;
38683;SDS011;24910;53.248;-6.134;2022-08-19T13:40:48;10.70;;;2.17;;
38683;SDS011;24910;53.248;-6.134;2022-08-19T13:43:19;7.30;;;2.35;;
38683;SDS011;24910;53.248;-6.134;2022-08-19T13:45:50;8.82;;;2.45;;
38683;SDS011;24910;53.248;-6.134;2022-08-19T13:48:24;10.02;;;2.42;;
38683;SDS011;24910;53.248;-6.134;2022-08-19T13:50:54;6.10;;;2.22;;
38683;SDS011;24910;53.248;-6.134;2022-08-19T13:53:25;9.02;;;2.55;;
38683;SDS011;24910;53.248;-6.134;2022-08-19T13:55:54;8.33;;;2.13;;
38683;SDS011;24910;53.248;-6.134;2022-08-19T13:58:23;5.03;;;2.42;;
38683;SDS011;24910;53.248;-6.134;2022-08-19T14:00:52;7.35;;;2.38;;
38683;SDS011;24910;53.248;-6.134;2022-08-19T14:03:21;5.68;;;1.83;;
38683;SDS011;24910;53.248;-6.134;2022-08-19T14:05:50;9.50;;;2.05;;
38683;SDS011;24910;53.248;-6.134;2022-08-19T14:08:19;5.45;;;2.25;;
38683;SDS011;24910;53.248;-6.134;2022-08-19T14:10:50;6.85;;;2.00;;
38683;SDS011;24910;53.248;-6.134;2022-08-19T14:13:20;8.17;;;2.77;;
38683;SDS011;24910;53.248;-6.134;2022-08-19T14:15:50;5.63;;;1.83;;
38683;SDS011;24910;53.248;-6.134;2022-08-19T14:18:20;6.10;;;1.88;;
38683;SDS011;24910;53.248;-6.134;2022-08-19T14:20:54;6.70;;;1.77;;
38683;SDS011;24910;53.248;-6.134;2022-08-19T14:23:25;7.47;;;2.10;;
38683;SDS011;24910;53.248;-6.134;2022-08-19T14:26:03;7.15;;;1.65;;
38683;SDS011;24910;53.248;-6.134;2022-08-19T14:28:33;8.02;;;2.13;;
38683;SDS011;24910;53.248;-6.134;2022-08-19T14:31:02;6.95;;;2.08;;
38683;SDS011;24910;53.248;-6.134;2022-08-19T14:33:32;7.28;;;1.40;;
38683;SDS011;24910;53.248;-6.134;2022-08-19T14:36:01;4.93;;;1.75;;
38683;SDS011;24910;53.248;-6.134;2022-08-19T14:38:30;5.93;;;1.70;;
38683;SDS011;24910;53.248;-6.134;2022-08-19T14:41:08;7.32;;;1.52;;
38683;SDS011;24910;53.248;-6.134;2022-08-19T14:43:40;5.32;;;1.60;;
38683;SDS011;24910;53.248;-6.134;2022-08-19T14:46:09;10.10;;;1.75;;
38683;SDS011;24910;53.248;-6.134;2022-08-19T14:48:43;5.70;;;2.17;;
38683;SDS011;24910;53.248;-6.134;2022-08-19T14:51:16;6.28;;;1.55;;
38683;SDS011;24910;53.248;-6.134;2022-08-19T14:53:46;3.65;;;1.33;;
38683;SDS011;24910;53.248;-6.134;2022-08-19T14:56:18;4.70;;;1.35;;
38683;SDS011;24910;53.248;-6.134;2022-08-19T14:58:50;6.05;;;1.50;;
38683;SDS011;24910;53.248;-6.134;2022-08-19T15:01:20;5.75;;;1.27;;
38683;SDS011;24910;53.248;-6.134;2022-08-19T15:06:21;4.00;;;1.42;;
38683;SDS011;24910;53.248;-6.134;2022-08-19T15:08:52;4.30;;;1.23;;
38683;SDS011;24910;53.248;-6.134;2022-08-19T15:11:25;6.45;;;1.60;;
38683;SDS011;24910;53.248;-6.134;2022-08-19T15:13:55;5.07;;;1.83;;
38683;SDS011;24910;53.248;-6.134;2022-08-19T15:16:25;5.78;;;1.70;;
38683;SDS011;24910;53.248;-6.134;2022-08-19T15:18:55;3.80;;;1.40;;
38683;SDS011;24910;53.248;-6.134;2022-08-19T15:23:56;5.65;;;1.48;;
38683;SDS011;24910;53.248;-6.134;2022-08-19T15:28:59;6.45;;;1.80;;